Latest Weather Observations for Gannett Cay

IDQ60801

Issued at 11:35 am EST Tuesday 2 September 2014 (issued every 30 minutes, with the page automatically refreshed every 10 minutes)

About weather observations | Map of weather stations | Latest weather observations for QLD | Other Formats
Station Details ID: 200831 Name: GANNET CAY Lat: -21.98 Lon: 152.47 Height: 2.3 m
Data from the previous 72 hours. | See also: Recent months for locations in Queensland
Date/Time
EST
Temp
°C
App
Temp
°C
Dew
Point
Rel
Hum
%
Delta-T
°C
Wind Press
QNH
hPa
Press
MSL
hPa
Rain
since 9 am
mm
Dir
 
Spd
km/h
Gust
km/h
Spd
kts
Gust
kts
02/11:30am 21.8 - - - - NNW 15 20 8 11 1015.9 - -
02/11:26am 21.7 - - - - NNW 15 17 8 9 1015.9 1016.0 -
02/11:00am 21.6 - - - - NNW 13 15 7 8 1016.2 - -
02/10:30am 21.8 - - - - N 13 15 7 8 1016.5 - -
02/10:26am 21.8 - - - - N 13 - 7 - - 1016.6 -
02/10:00am 21.8 - - - - NNW 11 13 6 7 1016.8 - -
02/09:30am 21.7 - - - - NNW 9 11 5 6 1017.1 - -
02/09:26am 21.7 - - - - NNW 9 - 5 - - 1017.3 -
02/09:00am 21.8 - - - - NNW 9 11 5 6 1017.3 - -
02/08:30am 21.9 - - - - N 6 7 3 4 1017.5 - -
02/08:26am 21.9 - - - - N 6 - 3 - - 1017.6 -
02/08:00am 22.0 - - - - CALM 0 0 0 0 1017.2 - -
02/07:30am 22.0 - - - - CALM 0 0 0 0 1017.1 - -
02/07:26am 22.0 - - - - CALM 0 - 0 - - 1017.2 -
02/07:00am 22.0 - - - - CALM 0 0 0 0 1017.0 - -
02/06:30am 21.4 - - - - CALM 0 0 0 0 1016.8 - -
02/06:26am 21.2 - - - - CALM 0 - 0 - - 1016.9 -
02/06:00am 21.1 - - - - NNE 0 0 0 0 1016.7 - -
02/05:26am 21.2 - - - - CALM 0 - 0 - - 1016.6 -
02/05:00am 21.3 - - - - CALM 0 0 0 0 1016.4 - -
02/04:26am 21.3 - - - - CALM 0 - 0 - - 1016.5 -
02/04:00am 21.2 - - - - CALM 0 0 0 0 1016.3 - -
02/03:30am 21.3 - - - - NE 6 7 3 4 1016.1 - -
02/03:26am 21.4 - - - - NE 6 - 3 - - 1016.3 -
02/02:30am 21.5 - - - - NE 9 9 5 5 1016.7 - -
02/02:26am 21.5 - - - - NE 9 - 5 - - 1016.7 -
02/02:00am 21.7 - - - - ENE 9 11 5 6 1016.6 - -
02/01:30am 21.7 - - - - ENE 13 15 7 8 1016.7 - -
02/01:26am 21.7 - - - - ENE 13 - 7 - - 1016.9 -
02/01:00am 21.7 - - - - E 13 17 7 9 1016.9 - -
02/12:26am 21.7 - - - - E 15 - 8 - - 1017.1 -
 
Date/Time
EST
Temp
°C
App
Temp
°C
Dew
Point
Rel
Hum
%
Delta-T
°C
Wind Press
QNH
hPa
Press
MSL
hPa
Rain
since 9 am
mm
Dir
 
Spd
km/h
Gust
km/h
Spd
kts
Gust
kts
01/11:30pm 21.8 - - - - E 17 19 9 10 1017.4 - -
01/11:26pm 21.8 - - - - E 17 - 9 - - 1017.6 -
01/11:00pm 21.8 - - - - E 17 20 9 11 1017.6 - -
01/10:30pm 21.8 - - - - E 17 19 9 10 1017.6 - -
01/10:26pm 21.8 - - - - E 17 - 9 - - 1017.7 -
01/10:00pm 21.8 - - - - E 19 20 10 11 1017.5 - -
01/09:30pm 21.9 - - - - E 19 22 10 12 1017.7 - -
01/09:26pm 21.9 - - - - E 19 - 10 - - 1017.8 -
01/09:00pm 21.9 - - - - E 15 19 8 10 1018.3 - -
01/08:30pm 21.9 - - - - E 17 19 9 10 1018.1 - -
01/08:26pm 21.9 - - - - E 17 - 9 - - 1018.1 -
01/08:00pm 21.9 - - - - E 20 24 11 13 1017.7 - -
01/07:30pm 21.9 - - - - E 20 24 11 13 1017.5 - -
01/07:26pm 21.9 - - - - E 20 - 11 - - 1017.6 -
01/07:00pm 22.0 - - - - E 19 20 10 11 1017.4 - -
01/06:30pm 21.9 - - - - E 19 20 10 11 1017.1 - -
01/06:26pm 22.0 - - - - E 17 - 9 - - 1017.2 -
01/06:00pm 22.0 - - - - E 17 19 9 10 1016.9 - -
01/05:30pm 22.0 - - - - E 13 17 7 9 1016.8 - -
01/05:26pm 22.0 - - - - E 13 - 7 - - 1016.9 -
01/05:00pm 22.4 - - - - E 15 17 8 9 1016.6 - -
01/04:30pm 22.5 - - - - E 15 19 8 10 1016.6 - -
01/04:26pm 22.5 - - - - E 15 - 8 - - 1016.6 -
01/04:00pm 23.0 - - - - ESE 13 15 7 8 1016.5 - -
01/03:30pm 22.8 - - - - E 15 17 8 9 1016.0 - -
01/03:26pm 22.8 - - - - E 15 - 8 - - 1016.2 -
01/03:00pm 22.7 - - - - E 15 20 8 11 1016.2 - -
01/02:30pm 23.0 - - - - E 11 15 6 8 1016.5 - -
01/02:26pm 22.8 - - - - E 11 - 6 - - 1016.6 -
01/02:00pm 23.5 - - - - E 11 13 6 7 1016.8 - -
01/01:30pm 23.6 - - - - E 13 17 7 9 1017.0 - -
01/01:26pm 23.2 - - - - E 13 - 7 - - 1017.2 -
01/01:00pm 22.2 - - - - ENE 17 20 9 11 1016.9 - -
01/12:30pm 21.8 - - - - NE 19 22 10 12 1017.0 - -
01/12:26pm 21.9 - - - - NE 19 - 10 - - 1017.2 -
01/12:00pm 22.8 - - - - NNE 2 6 1 3 1017.7 - -
01/11:30am 22.0 - - - - NNE 6 7 3 4 1018.5 - -
01/11:26am 22.0 - - - - N 7 - 4 - - 1018.4 -
01/11:00am 21.5 - - - - N 9 9 5 5 1018.7 - -
01/10:30am 21.7 - - - - NNE 11 13 6 7 1019.0 - -
01/10:26am 21.7 - - - - NNE 11 - 6 - - 1019.1 -
01/10:00am 21.2 - - - - NNE 17 19 9 10 1019.1 - -
01/09:30am 22.0 - - - - E 20 24 11 13 1019.1 - -
01/09:26am 22.0 - - - - E 22 - 12 - - 1019.2 -
01/09:00am 21.4 - - - - E 24 28 13 15 1018.9 - -
01/08:30am 21.7 - - - - E 28 32 15 17 1018.5 - -
01/08:26am 21.7 - - - - E 28 - 15 - - 1018.6 -
01/08:00am 21.3 - - - - ESE 30 32 16 17 1018.4 - -
01/07:30am 20.9 - - - - SE 26 35 14 19 1018.4 - -
01/07:26am 21.2 - - - - SE 22 - 12 - - 1018.5 -
01/07:00am 20.9 - - - - SE 20 24 11 13 1018.0 - -
01/06:30am 20.9 - - - - SSE 20 24 11 13 1017.9 - -
01/06:26am 20.8 - - - - SSE 20 - 11 - - 1018.0 -
01/06:00am 20.6 - - - - SE 22 26 12 14 1017.8 - -
01/05:30am 20.6 - - - - SE 22 26 12 14 1017.5 - -
01/05:26am 20.6 - - - - SE 22 - 12 - - 1017.5 -
01/05:00am 20.6 - - - - SE 22 26 12 14 1017.0 - -
01/04:30am 20.6 - - - - SSE 22 26 12 14 1016.8 - -
01/04:26am 20.6 - - - - SE 22 - 12 - - 1016.9 -
01/04:00am 20.7 - - - - SE 24 30 13 16 1016.8 - -
01/03:30am 20.8 - - - - SSE 24 30 13 16 1016.6 - -
01/03:26am 20.8 - - - - SSE 22 - 12 - - 1016.7 -
01/03:00am 20.7 - - - - SSE 19 22 10 12 1016.6 - -
01/02:30am 20.7 - - - - SE 19 20 10 11 1016.6 - -
01/02:26am 20.6 - - - - SE 19 - 10 - - 1016.7 -
01/02:00am 20.7 - - - - SSE 19 20 10 11 1016.8 - -
01/01:30am 20.8 - - - - SE 15 19 8 10 1017.0 - -
01/01:26am 20.7 - - - - SE 15 - 8 - - 1017.1 -
01/01:00am 20.8 - - - - SE 15 19 8 10 1017.1 - -
01/12:30am 20.8 - - - - ESE 15 17 8 9 1017.3 - -
01/12:26am 20.8 - - - - SE 15 - 8 - - 1017.5 -
01/12:00am 20.9 - - - - SE 15 19 8 10 1017.7 - -
 
Date/Time
EST
Temp
°C
App
Temp
°C
Dew
Point
Rel
Hum
%
Delta-T
°C
Wind Press
QNH
hPa
Press
MSL
hPa
Rain
since 9 am
mm
Dir
 
Spd
km/h
Gust
km/h
Spd
kts
Gust
kts
31/11:30pm 21.0 - - - - ESE 15 17 8 9 1017.8 - -
31/11:26pm 20.9 - - - - SE 15 - 8 - - 1018.0 -
31/11:00pm 21.0 - - - - ESE 17 20 9 11 1017.8 - -
31/10:30pm 20.9 - - - - ESE 15 20 8 11 1018.0 - -
31/10:26pm 20.9 - - - - SE 15 - 8 - - 1018.0 -
31/10:00pm 20.8 - - - - SE 15 19 8 10 1018.0 - -
31/09:30pm 20.8 - - - - SE 15 20 8 11 1017.9 - -
31/09:26pm 20.8 - - - - SE 17 - 9 - - 1018.0 -
31/09:00pm 20.9 - - - - ESE 19 22 10 12 1018.0 - -
31/08:30pm 20.9 - - - - E 17 20 9 11 1017.9 - -
31/08:26pm 20.9 - - - - ESE 17 - 9 - - 1018.0 -
31/08:00pm 20.6 - - - - SSE 15 19 8 10 1017.8 - -
31/07:30pm 20.6 - - - - SE 17 22 9 12 1017.6 - -
31/07:26pm 20.6 - - - - SE 17 - 9 - - 1017.7 -
31/07:00pm 20.6 - - - - SE 19 24 10 13 1017.3 - -
31/06:30pm 20.6 - - - - SE 17 22 9 12 1017.0 - -
31/06:26pm 20.6 - - - - SE 17 - 9 - - 1017.1 -
31/06:00pm 20.6 - - - - SE 17 20 9 11 1016.8 - -
31/05:30pm 20.9 - - - - SE 15 20 8 11 1016.5 - -
31/05:26pm 20.9 - - - - SE 15 - 8 - - 1016.6 -
31/05:00pm 21.4 - - - - SE 15 20 8 11 1016.3 - -
31/04:30pm 21.3 - - - - SSE 17 20 9 11 1015.9 - -
31/04:26pm 21.6 - - - - SSE 17 - 9 - - 1016.0 -
31/04:00pm 21.4 - - - - SSE 15 20 8 11 1015.8 - -
31/03:30pm 21.2 - - - - SSE 17 20 9 11 1015.7 - -
31/03:26pm 21.2 - - - - SSE 17 - 9 - - 1015.8 -
31/03:00pm 20.9 - - - - S 17 20 9 11 1015.8 - -
31/02:30pm 21.2 - - - - S 17 20 9 11 1016.0 - -
31/02:26pm 21.1 - - - - S 17 - 9 - - 1016.1 -
31/02:00pm 20.9 - - - - S 17 20 9 11 1016.1 - -
31/01:30pm 21.0 - - - - S 17 20 9 11 1016.4 - -
31/01:26pm 21.2 - - - - SSE 17 - 9 - - 1016.5 -
31/01:00pm 20.9 - - - - S 17 22 9 12 1016.9 - -
31/12:30pm 20.8 - - - - S 17 20 9 11 1017.2 - -
31/12:26pm 20.9 - - - - S 17 - 9 - - 1017.4 -
31/12:00pm 20.8 - - - - S 15 20 8 11 1017.6 - -
31/11:30am 20.9 - - - - S 15 19 8 10 1017.9 - -
31/11:26am 20.9 - - - - S 17 - 9 - - 1018.0 -
31/11:00am 21.1 - - - - SSE 15 20 8 11 1018.2 - -
31/10:30am 20.8 - - - - S 15 17 8 9 1018.5 - -
31/10:26am 20.8 - - - - SSE 15 - 8 - - 1018.6 -
31/10:00am 21.0 - - - - SSE 15 19 8 10 1018.8 - -
31/09:30am 20.8 - - - - S 17 20 9 11 1018.9 - -
31/09:26am 20.8 - - - - S 17 - 9 - - 1019.0 -
31/09:00am 20.7 - - - - SSE 17 20 9 11 1018.8 - -
31/08:30am 21.2 - - - - SSE 15 19 8 10 1018.7 - -
31/08:26am 21.4 - - - - SSE 15 - 8 - - 1018.8 -
31/08:00am 21.2 - - - - SSE 15 20 8 11 1018.4 - -
31/07:30am 21.2 - - - - SSE 19 20 10 11 1018.2 - -
31/07:26am 21.1 - - - - SSE 17 - 9 - - 1018.2 -
31/07:00am 21.1 - - - - SE 17 22 9 12 1017.9 - -
31/06:30am 20.7 - - - - SE 15 19 8 10 1017.5 - -
31/06:26am 20.6 - - - - SE 17 - 9 - - 1017.5 -
31/06:00am 20.4 - - - - SE 17 20 9 11 1017.1 - -
31/05:30am 20.4 - - - - SE 13 17 7 9 1016.8 - -
31/05:26am 20.4 - - - - SE 13 - 7 - - 1016.9 -
31/05:00am 20.3 - - - - SE 11 15 6 8 1016.5 - -
31/04:30am 20.3 - - - - ESE 11 15 6 8 1016.3 - -
31/04:26am 20.3 - - - - ESE 13 - 7 - - 1016.4 -
31/04:00am 20.3 - - - - ESE 9 13 5 7 1016.2 - -
31/03:30am 20.5 - - - - E 9 11 5 6 1016.1 - -
31/03:26am 20.4 - - - - E 9 - 5 - - 1016.2 -
31/03:00am 20.6 - - - - ENE 13 15 7 8 1016.3 - -
31/02:30am 20.5 - - - - ENE 11 13 6 7 1016.4 - -
31/02:26am 20.7 - - - - ENE 11 - 6 - - 1016.6 -
31/02:00am 20.4 - - - - ENE 11 15 6 8 1016.7 - -
31/01:30am 20.5 - - - - ENE 11 15 6 8 1017.1 - -
31/01:26am 20.5 - - - - E 13 - 7 - - 1017.3 -
31/01:00am 20.6 - - - - ENE 13 17 7 9 1017.4 - -
31/12:30am 20.7 - - - - ENE 11 13 6 7 1017.8 - -
31/12:26am 20.6 - - - - NE 11 - 6 - - 1017.9 -
31/12:00am 20.6 - - - - ENE 11 15 6 8 1018.2 - -
 
Date/Time
EST
Temp
°C
App
Temp
°C
Dew
Point
Rel
Hum
%
Delta-T
°C
Wind Press
QNH
hPa
Press
MSL
hPa
Rain
since 9 am
mm
Dir
 
Spd
km/h
Gust
km/h
Spd
kts
Gust
kts
30/11:30pm 20.3 - - - - ESE 9 13 5 7 1018.6 - -
30/11:26pm 20.4 - - - - ESE 9 - 5 - - 1018.7 -
30/11:00pm 20.4 - - - - ESE 7 9 4 5 1018.8 - -
30/10:30pm 20.8 - - - - E 13 15 7 8 1018.7 - -
30/10:26pm 20.7 - - - - ESE 11 - 6 - - 1018.8 -
30/10:00pm 20.6 - - - - SSE 11 13 6 7 1018.7 - -
30/09:30pm 20.6 - - - - SE 11 15 6 8 1018.4 - -
30/09:26pm 20.6 - - - - SSE 11 - 6 - - 1018.5 -
30/09:00pm 20.9 - - - - S 7 11 4 6 1018.5 - -
30/08:30pm 20.8 - - - - SSE 9 13 5 7 1018.6 - -
30/08:26pm 20.8 - - - - SSE 9 - 5 - - 1018.8 -
30/08:00pm 20.7 - - - - SSE 11 15 6 8 1018.5 - -
30/07:30pm 20.7 - - - - SSE 13 17 7 9 1018.5 - -
30/07:26pm 20.7 - - - - SSE 13 - 7 - - 1018.5 -
30/07:00pm 20.7 - - - - SSE 11 15 6 8 1017.9 - -
30/06:30pm 20.8 - - - - SSE 11 15 6 8 1017.8 - -
30/06:26pm 20.8 - - - - SSE 13 - 7 - - 1017.8 -
30/06:00pm 20.9 - - - - SSE 15 17 8 9 1017.1 - -
30/05:30pm 21.1 - - - - SSE 15 17 8 9 1017.0 - -
30/05:26pm 21.2 - - - - SSE 15 - 8 - - 1017.1 -
30/05:00pm 21.4 - - - - SSE 15 19 8 10 1016.7 - -
30/04:30pm 21.3 - - - - SSE 17 20 9 11 1016.4 - -
30/04:26pm 21.3 - - - - SSE 17 - 9 - - 1016.6 -
30/04:00pm 21.2 - - - - SSE 19 24 10 13 1016.1 - -
30/03:30pm 21.7 - - - - SSE 19 22 10 12 1016.0 - -
30/03:26pm 21.7 - - - - SSE 19 - 10 - - 1016.1 -
30/03:00pm 21.8 - - - - SSE 19 22 10 12 1016.0 - -
30/02:30pm 21.7 - - - - S 20 24 11 13 1016.3 - -
30/02:26pm 21.6 - - - - S 20 - 11 - - 1016.4 -
30/02:00pm 21.8 - - - - S 20 24 11 13 1016.6 - -
30/01:30pm 21.8 - - - - SSE 19 22 10 12 1016.7 - -
30/01:26pm 22.1 - - - - SSE 19 - 10 - - 1016.9 -
30/01:00pm 21.8 - - - - SSE 19 22 10 12 1017.1 - -
30/12:30pm 22.3 - - - - SSE 19 22 10 12 1017.8 - -
30/12:26pm 22.0 - - - - SSE 19 - 10 - - 1018.0 -
30/12:00pm 21.7 - - - - S 19 22 10 12 1018.1 - -

Other Formats:

Comma delimited format used in spreadsheet applications
http://www.bom.gov.au/fwo/IDQ60801/IDQ60801.94379.axf

JavaScript Object Notation format (JSON) in row-major order
http://www.bom.gov.au/fwo/IDQ60801/IDQ60801.94379.json